createdAt,value
2023-05-01T00:01:10.068Z,10.30
2023-05-01T00:03:58.320Z,10.40
2023-05-01T00:06:46.012Z,9.90
2023-05-01T00:09:33.395Z,9.87
2023-05-01T00:12:22.063Z,10.50
2023-05-01T00:15:10.208Z,9.83
2023-05-01T00:17:57.727Z,9.23
2023-05-01T00:20:45.011Z,10.17
2023-05-01T00:23:32.414Z,10.20
2023-05-01T00:26:19.780Z,9.10
2023-05-01T00:29:10.786Z,9.63
2023-05-01T00:31:58.212Z,9.37
2023-05-01T00:34:46.100Z,9.40
2023-05-01T00:37:33.382Z,9.27
2023-05-01T00:40:20.997Z,8.80
2023-05-01T00:43:08.563Z,9.40
2023-05-01T00:45:57.259Z,8.97
2023-05-01T00:48:44.883Z,8.23
2023-05-01T00:51:33.107Z,9.20
2023-05-01T00:54:21.371Z,8.33
2023-05-01T00:57:09.500Z,8.33
2023-05-01T00:59:56.964Z,8.83
2023-05-01T01:02:46.246Z,8.30
2023-05-01T01:05:40.148Z,8.67
2023-05-01T01:08:32.049Z,8.77
2023-05-01T01:11:22.569Z,8.67
2023-05-01T01:14:12.223Z,8.17
2023-05-01T01:17:00.963Z,8.50
2023-05-01T01:20:06.500Z,8.20
2023-05-01T01:22:59.987Z,7.70
2023-05-01T01:26:07.120Z,8.50
2023-05-01T01:29:18.485Z,7.33
2023-05-01T01:32:12.600Z,8.70
2023-05-01T01:35:03.500Z,7.63
2023-05-01T01:37:53.402Z,8.07
2023-05-01T01:40:46.841Z,7.80
2023-05-01T01:43:37.193Z,7.50
2023-05-01T01:46:25.226Z,7.63
2023-05-01T01:49:15.128Z,7.40
2023-05-01T01:52:05.424Z,7.10
2023-05-01T01:54:58.260Z,7.67
2023-05-01T01:57:47.278Z,7.40
2023-05-01T02:00:35.685Z,7.47
2023-05-01T02:03:24.333Z,7.83
2023-05-01T02:06:13.111Z,7.73
2023-05-01T02:09:03.808Z,6.60
2023-05-01T02:11:51.494Z,6.80
2023-05-01T02:14:39.058Z,7.60
2023-05-01T02:17:28.112Z,7.47
2023-05-01T02:20:15.867Z,6.93
2023-05-01T02:23:04.908Z,7.40
2023-05-01T02:25:55.018Z,7.07
2023-05-01T02:28:44.233Z,7.27
2023-05-01T02:31:31.660Z,7.60
2023-05-01T02:34:18.876Z,7.93
2023-05-01T02:37:07.662Z,7.17
2023-05-01T02:39:55.776Z,7.47
2023-05-01T02:42:45.630Z,7.30
2023-05-01T02:45:34.180Z,7.10
2023-05-01T02:48:24.377Z,7.67
2023-05-01T02:51:11.983Z,7.17
2023-05-01T02:54:00.538Z,7.60
2023-05-01T02:56:48.567Z,7.27
2023-05-01T02:59:37.450Z,6.83
2023-05-01T03:02:24.977Z,7.70
2023-05-01T03:05:12.520Z,7.60
2023-05-01T03:08:00.422Z,7.27
2023-05-01T03:10:47.907Z,7.53
2023-05-01T03:13:35.312Z,7.60
2023-05-01T03:16:24.362Z,7.37
2023-05-01T03:19:12.140Z,7.10
2023-05-01T03:22:00.036Z,7.03
2023-05-01T03:24:48.174Z,7.27
2023-05-01T03:27:35.617Z,6.50
2023-05-01T03:30:23.087Z,7.17
2023-05-01T03:33:13.034Z,6.57
2023-05-01T03:36:04.286Z,6.73
2023-05-01T03:38:52.847Z,6.57
2023-05-01T03:42:15.973Z,6.63
2023-05-01T03:45:04.544Z,6.93
2023-05-01T03:47:52.281Z,6.90
2023-05-01T03:50:42.243Z,6.57
2023-05-01T03:53:29.648Z,6.43
2023-05-01T03:56:17.919Z,6.20
2023-05-01T03:59:05.156Z,6.30
2023-05-01T04:01:52.793Z,6.83
2023-05-01T04:04:41.255Z,5.70
2023-05-01T04:07:30.396Z,5.90
2023-05-01T04:10:18.031Z,5.33
2023-05-01T04:13:14.250Z,5.70
2023-05-01T04:16:01.877Z,6.20
2023-05-01T04:18:49.306Z,5.90
2023-05-01T04:21:36.862Z,5.73
2023-05-01T04:24:25.562Z,5.93
2023-05-01T04:27:13.186Z,6.53
2023-05-01T04:30:02.235Z,5.77
2023-05-01T04:32:52.301Z,5.70
2023-05-01T04:35:40.180Z,6.30
2023-05-01T04:38:28.832Z,5.40
2023-05-01T04:41:19.385Z,5.97
2023-05-01T04:44:08.725Z,5.70
2023-05-01T04:46:56.397Z,5.30
2023-05-01T04:49:44.176Z,5.07
2023-05-01T04:52:31.474Z,5.23
2023-05-01T04:55:21.401Z,4.83
2023-05-01T04:58:39.620Z,4.53
2023-05-01T05:01:32.148Z,4.77
2023-05-01T05:04:19.858Z,4.30
2023-05-01T05:07:09.037Z,4.03
2023-05-01T05:10:19.292Z,3.90
2023-05-01T05:13:15.706Z,3.47
2023-05-01T05:16:04.579Z,4.40
2023-05-01T05:18:52.384Z,3.93
2023-05-01T05:21:39.575Z,4.00
2023-05-01T05:24:27.076Z,4.00
2023-05-01T05:27:15.879Z,3.97
2023-05-01T05:30:03.207Z,4.10
2023-05-01T05:32:51.947Z,4.00
2023-05-01T05:35:41.153Z,3.50
2023-05-01T05:38:29.085Z,3.50
2023-05-01T05:41:18.759Z,3.40
2023-05-01T05:44:07.407Z,3.30
2023-05-01T05:46:55.273Z,3.27
2023-05-01T05:49:51.046Z,3.63
2023-05-01T05:52:39.125Z,3.30
2023-05-01T05:55:28.025Z,3.70
2023-05-01T05:58:24.662Z,3.90
2023-05-01T06:01:12.415Z,3.80
2023-05-01T06:04:00.330Z,3.13
2023-05-01T06:06:50.821Z,3.20
2023-05-01T06:09:38.454Z,3.03
2023-05-01T06:12:26.286Z,3.00
2023-05-01T06:15:16.836Z,3.40
2023-05-01T06:18:09.614Z,2.92
2023-05-01T06:20:57.178Z,3.42
2023-05-01T06:23:46.002Z,3.20
2023-05-01T06:26:53.692Z,3.30
2023-05-01T06:29:41.197Z,3.42
2023-05-01T06:32:29.273Z,3.08
2023-05-01T06:35:16.685Z,3.13
2023-05-01T06:38:04.481Z,3.30
2023-05-01T06:40:53.546Z,3.00
2023-05-01T06:43:41.074Z,3.38
2023-05-01T06:46:29.579Z,3.45
2023-05-01T06:49:16.974Z,3.60
2023-05-01T06:52:06.167Z,3.30
2023-05-01T06:54:53.795Z,3.17
2023-05-01T06:57:42.843Z,3.30
2023-05-01T07:00:30.548Z,3.15
2023-05-01T07:03:18.006Z,3.13
2023-05-01T07:06:05.907Z,3.55
2023-05-01T07:08:53.544Z,3.20
2023-05-01T07:11:42.293Z,3.40
2023-05-01T07:14:31.224Z,3.17
2023-05-01T07:17:18.930Z,2.88
2023-05-01T07:20:06.823Z,3.28
2023-05-01T07:22:54.319Z,3.10
2023-05-01T07:25:42.785Z,2.95
2023-05-01T07:28:30.398Z,3.30
2023-05-01T07:31:19.189Z,2.85
2023-05-01T07:34:06.867Z,3.45
2023-05-01T07:36:54.161Z,3.10
2023-05-01T07:39:41.774Z,3.33
2023-05-01T07:42:29.322Z,2.60
2023-05-01T07:45:17.102Z,3.80
2023-05-01T07:48:06.055Z,2.88
2023-05-01T07:50:53.360Z,2.95
2023-05-01T07:53:42.306Z,3.28
2023-05-01T07:56:29.686Z,2.88
2023-05-01T07:59:17.459Z,2.95
2023-05-01T08:02:05.172Z,2.88
2023-05-01T08:04:54.114Z,2.50
2023-05-01T08:07:41.713Z,2.67
2023-05-01T08:10:29.134Z,2.80
2023-05-01T08:13:16.591Z,3.15
2023-05-01T08:16:04.622Z,2.80
2023-05-01T08:18:52.417Z,2.80
2023-05-01T08:21:41.087Z,2.50
2023-05-01T08:24:28.675Z,2.85
2023-05-01T08:27:16.402Z,2.33
2023-05-01T08:30:03.778Z,2.28
2023-05-01T08:32:51.274Z,2.67
2023-05-01T08:35:39.052Z,2.65
2023-05-01T08:38:27.991Z,2.10
2023-05-01T08:41:17.949Z,2.35
2023-05-01T08:44:06.308Z,2.60
2023-05-01T08:46:57.782Z,2.50
2023-05-01T08:49:46.600Z,1.92
2023-05-01T08:52:34.894Z,2.25
2023-05-01T08:55:24.553Z,2.40
2023-05-01T08:58:14.357Z,2.30
2023-05-01T09:01:02.688Z,2.50
2023-05-01T09:03:51.651Z,2.15
2023-05-01T09:06:39.198Z,2.38
2023-05-01T09:09:26.585Z,2.33
2023-05-01T09:12:20.073Z,2.40
2023-05-01T09:15:08.370Z,2.33
2023-05-01T09:17:55.946Z,2.58
2023-05-01T09:20:43.559Z,2.42
2023-05-01T09:23:31.271Z,2.50
2023-05-01T09:26:18.588Z,2.55
2023-05-01T09:29:07.583Z,2.65
2023-05-01T09:31:55.143Z,2.53
2023-05-01T09:34:43.548Z,2.83
2023-05-01T09:37:31.456Z,2.70
2023-05-01T09:40:18.827Z,2.30
2023-05-01T09:43:06.174Z,2.20
2023-05-01T09:46:06.560Z,3.20
2023-05-01T09:48:55.060Z,2.95
2023-05-01T09:51:43.262Z,2.47
2023-05-01T09:54:30.812Z,2.72
2023-05-01T09:57:18.233Z,3.08
2023-05-01T10:00:08.328Z,2.50
2023-05-01T10:02:57.396Z,2.83
2023-05-01T10:05:45.151Z,2.83
2023-05-01T10:08:46.531Z,2.90
2023-05-01T10:11:49.255Z,2.88
2023-05-01T10:14:50.789Z,2.55
2023-05-01T10:17:39.885Z,2.75
2023-05-01T10:20:28.917Z,2.70
2023-05-01T10:23:16.231Z,2.97
2023-05-01T10:26:05.248Z,2.50
2023-05-01T10:28:53.725Z,3.05
2023-05-01T10:31:42.706Z,2.70
2023-05-01T10:34:30.507Z,2.63
2023-05-01T10:37:24.179Z,3.13
2023-05-01T10:40:30.609Z,2.53
2023-05-01T10:43:19.109Z,3.03
2023-05-01T10:46:34.100Z,3.00
2023-05-01T10:49:21.513Z,3.13
2023-05-01T10:52:08.721Z,2.95
2023-05-01T10:55:17.370Z,2.97
2023-05-01T10:58:05.263Z,3.08
2023-05-01T11:01:07.781Z,3.08
2023-05-01T11:03:55.329Z,2.80
2023-05-01T11:07:02.979Z,2.90
2023-05-01T11:09:55.017Z,2.33
2023-05-01T11:12:51.021Z,2.70
2023-05-01T11:15:40.368Z,2.53
2023-05-01T11:18:42.628Z,2.78
2023-05-01T11:21:34.040Z,2.95
2023-05-01T11:24:21.511Z,3.05
2023-05-01T11:27:10.383Z,3.15
2023-05-01T11:29:58.448Z,3.40
2023-05-01T11:32:46.386Z,2.90
2023-05-01T11:35:34.135Z,3.10
2023-05-01T11:38:21.936Z,2.65
2023-05-01T11:41:09.489Z,3.15
2023-05-01T11:43:59.394Z,3.05
2023-05-01T11:46:46.929Z,3.33
2023-05-01T11:49:34.302Z,3.15
2023-05-01T11:52:21.673Z,2.80
2023-05-01T11:55:10.428Z,3.03
2023-05-01T11:57:59.337Z,2.95
2023-05-01T12:00:52.323Z,2.80
2023-05-01T12:03:43.543Z,2.88
2023-05-01T12:06:40.500Z,2.90
2023-05-01T12:09:28.364Z,3.00
2023-05-01T12:12:15.991Z,2.83
2023-05-01T12:15:03.644Z,2.80
2023-05-01T12:17:53.220Z,2.80
2023-05-01T12:20:41.482Z,2.80
2023-05-01T12:23:32.789Z,2.75
2023-05-01T12:26:21.846Z,2.70
2023-05-01T12:29:10.004Z,3.00
2023-05-01T12:31:57.848Z,2.53
2023-05-01T12:34:46.862Z,3.22
2023-05-01T12:37:34.611Z,3.17
2023-05-01T12:40:22.891Z,3.03
2023-05-01T12:43:10.444Z,2.55
2023-05-01T12:45:58.189Z,2.88
2023-05-01T12:48:45.715Z,3.20
2023-05-01T12:51:34.412Z,3.40
2023-05-01T12:54:22.736Z,2.88
2023-05-01T12:57:10.877Z,2.88
2023-05-01T13:00:01.211Z,3.38
2023-05-01T13:02:48.729Z,3.22
2023-05-01T13:05:36.392Z,3.03
2023-05-01T13:08:29.124Z,3.40
2023-05-01T13:11:17.267Z,3.00
2023-05-01T13:14:08.901Z,3.40
2023-05-01T13:16:56.836Z,3.15
2023-05-01T13:19:44.510Z,3.28
2023-05-01T13:22:33.383Z,2.70
2023-05-01T13:25:22.505Z,3.08
2023-05-01T13:28:11.918Z,2.80
2023-05-01T13:30:59.524Z,3.17
2023-05-01T13:33:47.117Z,2.80
2023-05-01T13:36:34.511Z,3.42
2023-05-01T13:39:21.880Z,3.25
2023-05-01T13:42:10.698Z,3.20
2023-05-01T13:44:58.903Z,3.33
2023-05-01T13:47:46.669Z,3.20
2023-05-01T13:50:36.024Z,3.65
2023-05-01T13:53:23.710Z,3.50
2023-05-01T13:56:13.175Z,3.08
2023-05-01T13:59:02.471Z,3.33
2023-05-01T14:01:51.030Z,3.38
2023-05-01T14:04:38.642Z,3.40
2023-05-01T14:07:26.788Z,3.55
2023-05-01T14:10:14.145Z,3.13
2023-05-01T14:13:04.988Z,3.53
2023-05-01T14:15:53.714Z,3.05
2023-05-01T14:18:45.740Z,2.83
2023-05-01T14:21:33.418Z,3.10
2023-05-01T14:24:20.689Z,3.22
2023-05-01T14:27:09.542Z,3.35
2023-05-01T14:29:57.178Z,3.20
2023-05-01T14:32:45.896Z,3.17
2023-05-01T14:35:33.582Z,3.60
2023-05-01T14:38:22.405Z,3.25
2023-05-01T14:41:14.656Z,3.35
2023-05-01T14:44:03.483Z,3.25
2023-05-01T14:46:52.039Z,3.60
2023-05-01T14:49:42.914Z,4.00
2023-05-01T14:52:30.218Z,3.63
2023-05-01T14:55:19.825Z,3.33
2023-05-01T14:58:07.429Z,3.90
2023-05-01T15:00:55.111Z,3.70
2023-05-01T15:03:43.822Z,3.88
2023-05-01T15:06:33.814Z,4.20
2023-05-01T15:09:21.441Z,3.25
2023-05-01T15:12:09.588Z,3.63
2023-05-01T15:14:57.289Z,3.38
2023-05-01T15:17:45.180Z,3.42
2023-05-01T15:20:32.975Z,3.72
2023-05-01T15:23:21.877Z,3.20
2023-05-01T15:26:09.463Z,3.58
2023-05-01T15:28:56.811Z,3.63
2023-05-01T15:31:44.263Z,3.60
2023-05-01T15:34:31.587Z,3.63
2023-05-01T15:37:18.924Z,5.80
2023-05-01T15:40:08.827Z,7.65
2023-05-01T15:42:56.507Z,3.60
2023-05-01T15:45:44.795Z,3.75
2023-05-01T15:48:33.581Z,3.95
2023-05-01T15:51:21.117Z,3.63
2023-05-01T15:54:08.400Z,4.00
2023-05-01T15:56:57.430Z,3.30
2023-05-01T15:59:45.166Z,3.25
2023-05-01T16:02:33.638Z,3.70
2023-05-01T16:05:22.475Z,3.30
2023-05-01T16:08:10.197Z,3.33
2023-05-01T16:10:58.203Z,3.30
2023-05-01T16:13:47.676Z,3.50
2023-05-01T16:16:35.283Z,3.80
2023-05-01T16:19:22.585Z,3.63
2023-05-01T16:22:11.506Z,4.10
2023-05-01T16:25:01.151Z,4.10
2023-05-01T16:27:48.825Z,3.35
2023-05-01T16:30:37.543Z,3.85
2023-05-01T16:33:25.195Z,3.67
2023-05-01T16:36:12.902Z,3.97
2023-05-01T16:39:00.358Z,3.60
2023-05-01T16:41:49.380Z,3.72
2023-05-01T16:44:37.513Z,4.25
2023-05-01T16:47:26.280Z,4.10
2023-05-01T16:50:14.042Z,4.80
2023-05-01T16:53:01.693Z,3.42
2023-05-01T16:55:49.468Z,4.15
2023-05-01T16:58:37.186Z,3.70
2023-05-01T17:01:24.609Z,14.07
2023-05-01T17:04:15.326Z,4.45
2023-05-01T17:07:02.851Z,3.92
2023-05-01T17:09:50.183Z,4.13
2023-05-01T17:12:37.678Z,3.97
2023-05-01T17:15:25.028Z,4.25
2023-05-01T17:18:12.477Z,3.92
2023-05-01T17:21:01.198Z,4.78
2023-05-01T17:23:48.740Z,4.22
2023-05-01T17:26:36.657Z,4.05
2023-05-01T17:29:24.420Z,4.22
2023-05-01T17:32:13.177Z,3.78
2023-05-01T17:35:03.197Z,4.60
2023-05-01T17:37:51.879Z,4.10
2023-05-01T17:40:39.652Z,4.60
2023-05-01T17:43:27.626Z,4.32
2023-05-01T17:46:16.657Z,4.57
2023-05-01T17:49:04.062Z,4.43
2023-05-01T17:51:51.517Z,4.57
2023-05-01T17:54:40.820Z,4.35
2023-05-01T17:57:28.575Z,4.43
2023-05-01T18:00:16.428Z,4.72
2023-05-01T18:03:04.685Z,4.25
2023-05-01T18:05:52.718Z,4.80
2023-05-01T18:08:40.702Z,5.57
2023-05-01T18:11:29.789Z,5.68
2023-05-01T18:14:17.462Z,4.93
2023-05-01T18:17:05.053Z,5.03
2023-05-01T18:19:52.782Z,5.40
2023-05-01T18:22:40.219Z,4.88
2023-05-01T18:25:28.116Z,5.70
2023-05-01T18:28:18.524Z,6.68
2023-05-01T18:31:06.239Z,6.25
2023-05-01T18:33:53.570Z,6.15
2023-05-01T18:36:40.938Z,6.00
2023-05-01T18:39:28.396Z,5.50
2023-05-01T18:42:15.864Z,5.25
2023-05-01T18:45:04.662Z,5.25
2023-05-01T18:47:52.294Z,5.10
2023-05-01T18:50:39.667Z,6.97
2023-05-01T18:53:27.206Z,5.40
2023-05-01T18:56:14.573Z,5.20
2023-05-01T18:59:02.407Z,7.05
2023-05-01T19:01:51.460Z,4.70
2023-05-01T19:04:55.368Z,4.13
2023-05-01T19:07:44.672Z,4.05
2023-05-01T19:10:32.012Z,5.53
2023-05-01T19:13:19.406Z,5.15
2023-05-01T19:16:07.123Z,5.68
2023-05-01T19:18:55.741Z,6.20
2023-05-01T19:21:43.534Z,5.15
2023-05-01T19:24:31.220Z,8.73
2023-05-01T19:27:19.078Z,6.88
2023-05-01T19:30:06.973Z,6.95
2023-05-01T19:32:54.612Z,6.97
2023-05-01T19:35:43.288Z,7.50
2023-05-01T19:38:31.009Z,7.10
2023-05-01T19:41:18.387Z,7.07
2023-05-01T19:44:06.004Z,6.80
2023-05-01T19:46:53.387Z,7.32
2023-05-01T19:49:41.127Z,5.85
2023-05-01T19:52:30.298Z,7.20
2023-05-01T19:55:18.032Z,7.55
2023-05-01T19:58:05.637Z,7.00
2023-05-01T20:00:56.140Z,6.30
2023-05-01T20:03:43.495Z,6.35
2023-05-01T20:06:31.159Z,6.82
2023-05-01T20:09:20.257Z,6.35
2023-05-01T20:12:07.931Z,6.53
2023-05-01T20:14:55.269Z,6.30
2023-05-01T20:17:43.387Z,6.38
2023-05-01T20:20:31.871Z,6.53
2023-05-01T20:23:22.709Z,6.93
2023-05-01T20:26:11.895Z,6.95
2023-05-01T20:29:00.179Z,7.03
2023-05-01T20:31:47.537Z,7.32
2023-05-01T20:34:35.133Z,8.75
2023-05-01T20:37:22.833Z,9.05
2023-05-01T20:40:11.550Z,8.90
2023-05-01T20:43:00.660Z,10.32
2023-05-01T20:45:48.402Z,9.98
2023-05-01T20:48:36.306Z,9.52
2023-05-01T20:51:23.517Z,9.88
2023-05-01T20:54:11.075Z,9.32
2023-05-01T20:56:58.671Z,8.90
2023-05-01T20:59:50.951Z,9.30
2023-05-01T21:02:38.868Z,9.25
2023-05-01T21:05:26.351Z,9.15
2023-05-01T21:08:13.754Z,8.65
2023-05-01T21:11:02.508Z,9.32
2023-05-01T21:13:50.111Z,9.38
2023-05-01T21:16:39.581Z,10.45
2023-05-01T21:19:27.119Z,10.30
2023-05-01T21:22:16.206Z,9.55
2023-05-01T21:25:03.848Z,11.50
2023-05-01T21:27:51.164Z,10.45
2023-05-01T21:30:38.711Z,10.25
2023-05-01T21:33:28.388Z,9.40
2023-05-01T21:36:18.907Z,10.13
2023-05-01T21:39:07.155Z,9.32
2023-05-01T21:41:54.546Z,11.23
2023-05-01T21:44:42.452Z,10.90
2023-05-01T21:47:30.262Z,10.38
2023-05-01T21:50:19.978Z,9.55
2023-05-01T21:53:07.866Z,9.73
2023-05-01T21:55:55.392Z,10.60
2023-05-01T21:58:43.021Z,10.02
2023-05-01T22:01:30.617Z,10.45
2023-05-01T22:04:19.029Z,10.27
2023-05-01T22:07:07.969Z,9.60
2023-05-01T22:09:55.618Z,9.45
2023-05-01T22:12:43.528Z,10.00
2023-05-01T22:15:31.235Z,9.52
2023-05-01T22:18:19.613Z,8.73
2023-05-01T22:21:07.175Z,8.77
2023-05-01T22:23:56.055Z,8.82
2023-05-01T22:26:44.295Z,9.27
2023-05-01T22:29:31.772Z,9.05
2023-05-01T22:32:19.697Z,9.40
2023-05-01T22:35:08.356Z,8.10
2023-05-01T22:37:55.725Z,8.05
2023-05-01T22:40:44.418Z,8.43
2023-05-01T22:43:32.024Z,7.90
2023-05-01T22:46:19.534Z,7.70
2023-05-01T22:49:09.235Z,7.53
2023-05-01T22:51:57.290Z,7.15
2023-05-01T22:54:44.533Z,7.30
2023-05-01T22:57:33.307Z,7.05
2023-05-01T23:00:22.145Z,6.75
2023-05-01T23:03:10.144Z,6.30
2023-05-01T23:05:57.823Z,5.55
2023-05-01T23:08:45.348Z,6.53
2023-05-01T23:11:33.141Z,6.10
2023-05-01T23:14:21.998Z,6.20
2023-05-01T23:17:09.626Z,6.28
2023-05-01T23:19:58.479Z,5.70
2023-05-01T23:22:46.466Z,5.82
2023-05-01T23:25:33.775Z,5.65
2023-05-01T23:28:22.124Z,5.35
2023-05-01T23:31:17.935Z,5.50
2023-05-01T23:34:05.739Z,5.55
2023-05-01T23:36:53.098Z,5.13
2023-05-01T23:39:40.611Z,4.82
2023-05-01T23:42:28.044Z,4.72
2023-05-01T23:45:16.912Z,4.82
2023-05-01T23:48:06.443Z,4.63
2023-05-01T23:50:54.243Z,4.82
2023-05-01T23:53:42.283Z,4.88
2023-05-01T23:56:29.756Z,4.32
2023-05-01T23:59:17.133Z,4.35
